createdAt,value
2023-01-29T00:00:20.013Z,-0.92
2023-01-29T00:02:50.074Z,-0.97
2023-01-29T00:05:27.948Z,-1.03
2023-01-29T00:07:58.441Z,-1.13
2023-01-29T00:10:27.551Z,-1.28
2023-01-29T00:12:56.439Z,-1.18
2023-01-29T00:15:25.030Z,-1.24
2023-01-29T00:17:55.027Z,-1.24
2023-01-29T00:20:23.571Z,-1.31
2023-01-29T00:22:52.110Z,-1.37
2023-01-29T00:25:20.685Z,-1.36
2023-01-29T00:27:49.265Z,-1.36
2023-01-29T00:30:20.112Z,-1.42
2023-01-29T00:32:49.049Z,-1.45
2023-01-29T00:35:19.128Z,-1.54
2023-01-29T00:37:47.935Z,-1.54
2023-01-29T00:40:16.811Z,-1.48
2023-01-29T00:43:03.700Z,-1.41
2023-01-29T00:45:32.267Z,-1.43
2023-01-29T00:48:01.015Z,-1.40
2023-01-29T00:50:31.476Z,-1.37
2023-01-29T00:53:00.012Z,-1.34
2023-01-29T00:55:28.666Z,-1.30
2023-01-29T00:57:57.218Z,-1.26
2023-01-29T01:00:26.182Z,-1.27
2023-01-29T01:03:08.999Z,-1.32
2023-01-29T01:05:39.336Z,-1.39
2023-01-29T01:08:28.956Z,-1.46
2023-01-29T01:11:04.108Z,-1.54
2023-01-29T01:13:33.707Z,-1.63
2023-01-29T01:16:02.647Z,-1.61
2023-01-29T01:18:31.794Z,-1.73
2023-01-29T01:21:01.888Z,-1.68
2023-01-29T01:23:30.411Z,-1.75
2023-01-29T01:25:59.292Z,-1.78
2023-01-29T01:28:28.156Z,-1.79
2023-01-29T01:30:56.867Z,-1.73
2023-01-29T01:33:25.457Z,-1.84
2023-01-29T01:35:54.031Z,-1.99
2023-01-29T01:38:24.364Z,-1.98
2023-01-29T01:40:52.864Z,-2.01
2023-01-29T01:43:22.875Z,-2.03
2023-01-29T01:45:51.429Z,-2.02
2023-01-29T01:48:23.260Z,-2.19
2023-01-29T01:50:54.763Z,-1.90
2023-01-29T01:53:30.929Z,-1.89
2023-01-29T01:56:05.052Z,-1.90
2023-01-29T01:58:37.800Z,-1.95
2023-01-29T02:01:09.004Z,-2.07
2023-01-29T02:04:01.930Z,-2.11
2023-01-29T02:06:49.253Z,-2.08
2023-01-29T02:09:33.691Z,-2.09
2023-01-29T02:12:02.849Z,-2.13
2023-01-29T02:14:34.619Z,-2.15
2023-01-29T02:17:03.664Z,-2.17
2023-01-29T02:19:42.994Z,-2.12
2023-01-29T02:22:39.979Z,-2.08
2023-01-29T02:25:35.640Z,-2.11
2023-01-29T02:28:22.154Z,-2.23
2023-01-29T02:31:00.371Z,-2.33
2023-01-29T02:33:38.284Z,-2.36
2023-01-29T02:36:18.096Z,-2.39
2023-01-29T02:38:56.217Z,-2.37
2023-01-29T02:41:30.340Z,-2.38
2023-01-29T02:44:08.071Z,-2.41
2023-01-29T02:46:42.602Z,-2.38
2023-01-29T02:49:19.172Z,-2.44
2023-01-29T02:51:55.166Z,-2.41
2023-01-29T02:54:27.484Z,-2.39
2023-01-29T02:57:00.133Z,-2.63
2023-01-29T02:59:36.898Z,-3.20
2023-01-29T03:02:11.235Z,-2.61
2023-01-29T03:04:46.746Z,-2.55
2023-01-29T03:07:39.729Z,-2.73
2023-01-29T03:10:16.092Z,-2.57
2023-01-29T03:12:48.883Z,-2.59
2023-01-29T03:15:25.350Z,-2.84
2023-01-29T03:18:21.682Z,-2.70
2023-01-29T03:20:54.828Z,-2.78
2023-01-29T03:23:42.689Z,-2.76
2023-01-29T03:26:30.519Z,-2.75
2023-01-29T03:29:18.901Z,-2.71
2023-01-29T03:32:05.591Z,-2.62
2023-01-29T03:34:39.811Z,-2.59
2023-01-29T03:37:15.375Z,-2.54
2023-01-29T03:39:44.155Z,-2.56
2023-01-29T03:42:23.297Z,-2.52
2023-01-29T03:45:00.580Z,-2.50
2023-01-29T03:47:45.142Z,-2.54
2023-01-29T03:50:31.221Z,-2.56
2023-01-29T03:53:08.550Z,-2.62
2023-01-29T03:55:41.994Z,-2.63
2023-01-29T03:58:22.421Z,-2.68
2023-01-29T04:00:57.097Z,-2.70
2023-01-29T04:03:34.296Z,-2.72
2023-01-29T04:06:11.015Z,-2.82
2023-01-29T04:09:04.337Z,-2.99
2023-01-29T04:11:36.735Z,-2.91
2023-01-29T04:14:05.609Z,-2.89
2023-01-29T04:16:38.153Z,-2.92
2023-01-29T04:19:37.469Z,-3.02
2023-01-29T04:22:12.771Z,-3.02
2023-01-29T04:24:42.873Z,-3.81
2023-01-29T04:27:28.358Z,-3.00
2023-01-29T04:30:21.160Z,-3.06
2023-01-29T04:33:01.607Z,-3.15
2023-01-29T04:35:38.339Z,-3.14
2023-01-29T04:38:13.934Z,-3.19
2023-01-29T04:40:52.431Z,-3.23
2023-01-29T04:43:29.963Z,-3.25
2023-01-29T04:46:12.154Z,-3.21
2023-01-29T04:48:52.747Z,-3.33
2023-01-29T04:51:27.154Z,-3.29
2023-01-29T04:54:03.900Z,-3.33
2023-01-29T04:56:40.713Z,-3.32
2023-01-29T04:59:14.411Z,-3.39
2023-01-29T05:01:54.604Z,-3.39
2023-01-29T05:04:28.824Z,-3.42
2023-01-29T05:06:59.927Z,-3.51
2023-01-29T05:09:28.714Z,-3.47
2023-01-29T05:11:58.033Z,-3.43
2023-01-29T05:14:30.688Z,-3.42
2023-01-29T05:17:03.553Z,-3.41
2023-01-29T05:19:32.190Z,-3.43
2023-01-29T05:22:02.258Z,-3.43
2023-01-29T05:24:30.835Z,-3.46
2023-01-29T05:27:16.865Z,-3.50
2023-01-29T05:29:48.244Z,-3.65
2023-01-29T05:32:17.340Z,-3.71
2023-01-29T05:34:45.692Z,-3.71
2023-01-29T05:37:15.757Z,-3.66
2023-01-29T05:39:44.236Z,-3.66
2023-01-29T05:42:12.787Z,-3.59
2023-01-29T05:44:41.346Z,-3.49
2023-01-29T05:47:09.922Z,-3.50
2023-01-29T05:49:38.844Z,-3.55
2023-01-29T05:52:07.369Z,-3.60
2023-01-29T05:54:37.320Z,-3.62
2023-01-29T05:57:05.991Z,-3.67
2023-01-29T05:59:34.508Z,-3.67
2023-01-29T06:02:02.967Z,-3.70
2023-01-29T06:04:31.510Z,-3.70
2023-01-29T06:07:01.328Z,-3.72
2023-01-29T06:09:29.778Z,-3.70
2023-01-29T06:11:59.707Z,-3.72
2023-01-29T06:14:28.192Z,-3.85
2023-01-29T06:16:56.823Z,-3.94
2023-01-29T06:19:25.381Z,-4.02
2023-01-29T06:21:53.800Z,-4.01
2023-01-29T06:24:22.390Z,-3.98
2023-01-29T06:26:50.937Z,-4.00
2023-01-29T06:29:21.224Z,-3.95
2023-01-29T06:31:49.881Z,-3.93
2023-01-29T06:34:19.420Z,-3.92
2023-01-29T06:36:48.088Z,-3.86
2023-01-29T06:39:16.796Z,-3.77
2023-01-29T06:41:46.715Z,-3.72
2023-01-29T06:44:15.337Z,-3.70
2023-01-29T06:46:45.301Z,-3.77
2023-01-29T06:49:13.883Z,-3.83
2023-01-29T06:51:42.440Z,-3.88
2023-01-29T06:54:11.206Z,-3.90
2023-01-29T06:56:39.732Z,-3.94
2023-01-29T06:59:08.176Z,-3.93
2023-01-29T07:01:36.885Z,-3.88
2023-01-29T07:04:07.130Z,-3.86
2023-01-29T07:06:36.411Z,-3.89
2023-01-29T07:09:05.280Z,-3.89
2023-01-29T07:11:35.663Z,-3.82
2023-01-29T07:14:04.081Z,-3.76
2023-01-29T07:16:32.762Z,-3.77
2023-01-29T07:19:01.383Z,-3.78
2023-01-29T07:21:31.315Z,-3.75
2023-01-29T07:23:59.948Z,-3.74
2023-01-29T07:26:28.514Z,-3.71
2023-01-29T07:28:56.986Z,-3.68
2023-01-29T07:31:25.587Z,-2.80
2023-01-29T07:33:54.110Z,-3.09
2023-01-29T07:36:22.557Z,-3.25
2023-01-29T07:38:52.859Z,-3.28
2023-01-29T07:41:21.514Z,-3.18
2023-01-29T07:43:50.238Z,-3.00
2023-01-29T07:46:18.819Z,-2.85
2023-01-29T07:48:47.413Z,-2.77
2023-01-29T07:51:17.275Z,-2.63
2023-01-29T07:53:45.713Z,-2.40
2023-01-29T07:56:15.679Z,-2.24
2023-01-29T07:58:44.144Z,-2.11
2023-01-29T08:01:12.677Z,-2.05
2023-01-29T08:03:41.436Z,-2.02
2023-01-29T08:06:10.045Z,-1.91
2023-01-29T08:08:38.582Z,-1.74
2023-01-29T08:11:07.461Z,-1.37
2023-01-29T08:13:37.437Z,-0.96
2023-01-29T08:16:06.942Z,-0.53
2023-01-29T08:18:35.609Z,-0.06
2023-01-29T08:21:04.398Z,0.31
2023-01-29T08:23:32.940Z,0.67
2023-01-29T08:26:03.385Z,0.96
2023-01-29T08:28:31.935Z,1.30
2023-01-29T08:31:02.090Z,1.66
2023-01-29T08:33:38.711Z,2.03
2023-01-29T08:36:09.334Z,2.28
2023-01-29T08:38:37.809Z,2.44
2023-01-29T08:41:06.763Z,2.62
2023-01-29T08:43:37.234Z,2.87
2023-01-29T08:46:08.025Z,3.16
2023-01-29T08:48:36.699Z,3.43
2023-01-29T08:51:05.695Z,3.55
2023-01-29T08:53:34.641Z,3.59
2023-01-29T08:56:03.284Z,3.61
2023-01-29T08:58:31.868Z,3.63
2023-01-29T09:01:09.200Z,3.54
2023-01-29T09:03:41.054Z,3.48
2023-01-29T09:06:11.044Z,3.56
2023-01-29T09:08:39.903Z,3.58
2023-01-29T09:11:09.234Z,3.57
2023-01-29T09:13:37.925Z,3.65
2023-01-29T09:16:08.663Z,3.84
2023-01-29T09:18:37.161Z,3.95
2023-01-29T09:21:06.169Z,4.17
2023-01-29T09:23:35.168Z,4.26
2023-01-29T09:26:03.677Z,4.36
2023-01-29T09:28:32.210Z,4.44
2023-01-29T09:31:02.997Z,4.48
2023-01-29T09:33:33.734Z,4.49
2023-01-29T09:36:04.496Z,4.50
2023-01-29T09:38:33.033Z,4.49
2023-01-29T09:41:10.299Z,4.51
2023-01-29T09:43:46.593Z,4.60
2023-01-29T09:46:22.069Z,4.63
2023-01-29T09:48:59.151Z,4.51
2023-01-29T09:51:35.602Z,4.67
2023-01-29T09:54:16.189Z,4.69
2023-01-29T09:56:47.084Z,4.74
2023-01-29T09:59:19.792Z,4.77
2023-01-29T10:02:01.136Z,4.83
2023-01-29T10:05:10.230Z,4.87
2023-01-29T10:08:02.808Z,4.84
2023-01-29T10:10:44.500Z,4.92
2023-01-29T10:13:21.563Z,4.99
2023-01-29T10:16:12.845Z,5.02
2023-01-29T10:19:02.844Z,5.04
2023-01-29T10:21:51.642Z,5.09
2023-01-29T10:24:32.577Z,5.17
2023-01-29T10:27:02.449Z,5.20
2023-01-29T10:29:33.253Z,5.25
2023-01-29T10:32:06.093Z,5.28
2023-01-29T10:34:42.605Z,5.33
2023-01-29T10:37:19.573Z,5.35
2023-01-29T10:39:48.211Z,5.32
2023-01-29T10:42:35.466Z,5.40
2023-01-29T10:45:19.179Z,5.48
2023-01-29T10:48:22.343Z,5.52
2023-01-29T10:50:57.728Z,5.58
2023-01-29T10:53:49.081Z,5.72
2023-01-29T10:56:35.086Z,5.83
2023-01-29T10:59:10.702Z,5.96
2023-01-29T11:01:39.414Z,6.01
2023-01-29T11:04:08.195Z,6.04
2023-01-29T11:06:38.261Z,6.12
2023-01-29T11:09:20.852Z,6.19
2023-01-29T11:11:53.811Z,6.28
2023-01-29T11:14:26.097Z,6.38
2023-01-29T11:16:54.800Z,6.45
2023-01-29T11:19:41.543Z,6.58
2023-01-29T11:22:15.216Z,6.66
2023-01-29T11:24:45.842Z,6.72
2023-01-29T11:27:26.189Z,6.84
2023-01-29T11:29:55.279Z,6.90
2023-01-29T11:32:29.832Z,6.97
2023-01-29T11:35:00.808Z,7.10
2023-01-29T11:37:39.779Z,7.28
2023-01-29T11:40:39.262Z,7.39
2023-01-29T11:43:29.530Z,7.48
2023-01-29T11:46:01.902Z,7.61
2023-01-29T11:48:41.952Z,7.69
2023-01-29T11:51:13.875Z,7.76
2023-01-29T11:53:45.080Z,7.79
2023-01-29T11:56:28.477Z,7.87
2023-01-29T11:58:59.103Z,7.73
2023-01-29T12:01:33.698Z,7.91
2023-01-29T12:04:02.955Z,7.92
2023-01-29T12:06:36.608Z,7.95
2023-01-29T12:09:15.457Z,8.02
2023-01-29T12:11:45.965Z,8.06
2023-01-29T12:14:33.708Z,7.07
2023-01-29T12:17:08.980Z,8.14
2023-01-29T12:19:43.033Z,8.10
2023-01-29T12:22:18.769Z,8.00
2023-01-29T12:24:54.303Z,7.99
2023-01-29T12:27:28.258Z,7.95
2023-01-29T12:30:03.719Z,7.89
2023-01-29T12:32:41.101Z,7.86
2023-01-29T12:35:16.478Z,7.82
2023-01-29T12:37:55.469Z,7.65
2023-01-29T12:40:29.972Z,7.77
2023-01-29T12:43:05.993Z,7.75
2023-01-29T12:45:38.060Z,7.65
2023-01-29T12:48:09.917Z,7.72
2023-01-29T12:50:39.865Z,7.67
2023-01-29T12:53:22.180Z,7.72
2023-01-29T12:55:55.691Z,7.73
2023-01-29T12:58:30.912Z,7.74
2023-01-29T13:01:07.812Z,7.76
2023-01-29T13:03:46.917Z,7.77
2023-01-29T13:06:19.691Z,7.74
2023-01-29T13:08:54.022Z,7.76
2023-01-29T13:11:27.530Z,7.80
2023-01-29T13:14:02.570Z,7.84
2023-01-29T13:16:37.661Z,7.86
2023-01-29T13:19:16.288Z,7.93
2023-01-29T13:21:46.537Z,7.95
2023-01-29T13:24:20.292Z,7.97
2023-01-29T13:26:50.108Z,8.01
2023-01-29T13:29:25.559Z,8.07
2023-01-29T13:31:55.677Z,8.09
2023-01-29T13:34:26.264Z,8.04
2023-01-29T13:36:58.613Z,8.09
2023-01-29T13:39:31.098Z,7.98
2023-01-29T13:42:01.418Z,7.97
2023-01-29T13:44:35.035Z,7.93
2023-01-29T13:47:09.091Z,7.87
2023-01-29T13:49:41.990Z,7.88
2023-01-29T13:52:22.680Z,7.89
2023-01-29T13:54:55.327Z,7.87
2023-01-29T13:57:49.964Z,7.83
2023-01-29T14:01:01.749Z,7.80
2023-01-29T14:04:08.396Z,7.71
2023-01-29T14:06:51.146Z,7.73
2023-01-29T14:09:34.464Z,7.76
2023-01-29T14:12:03.392Z,7.79
2023-01-29T14:15:04.426Z,7.87
2023-01-29T14:17:40.323Z,7.88
2023-01-29T14:20:45.131Z,7.85
2023-01-29T14:23:51.569Z,7.84
2023-01-29T14:26:43.068Z,7.87
2023-01-29T14:29:34.721Z,7.86
2023-01-29T14:32:20.639Z,7.87
2023-01-29T14:34:52.210Z,7.88
2023-01-29T14:37:44.386Z,7.87
2023-01-29T14:40:32.008Z,7.84
2023-01-29T14:43:20.311Z,7.81
2023-01-29T14:45:54.554Z,7.79
2023-01-29T14:48:58.690Z,7.83
2023-01-29T14:51:37.830Z,7.55
2023-01-29T14:54:20.553Z,7.80
2023-01-29T14:56:58.879Z,7.72
2023-01-29T14:59:33.616Z,7.71
2023-01-29T15:02:06.745Z,7.73
2023-01-29T15:04:42.114Z,7.77
2023-01-29T15:07:24.850Z,7.77
2023-01-29T15:10:13.538Z,7.75
2023-01-29T15:12:53.476Z,7.74
2023-01-29T15:15:31.980Z,7.04
2023-01-29T15:18:06.892Z,7.75
2023-01-29T15:20:37.510Z,7.69
2023-01-29T15:23:24.942Z,7.68
2023-01-29T15:25:58.647Z,7.66
2023-01-29T15:28:32.213Z,7.66
2023-01-29T15:31:03.238Z,7.65
2023-01-29T15:33:34.736Z,7.67
2023-01-29T15:36:07.901Z,7.68
2023-01-29T15:38:37.492Z,7.63
2023-01-29T15:41:19.752Z,7.63
2023-01-29T15:43:50.675Z,7.66
2023-01-29T15:46:26.384Z,7.66
2023-01-29T15:48:56.927Z,7.64
2023-01-29T15:51:27.752Z,7.64
2023-01-29T15:53:59.178Z,7.62
2023-01-29T15:56:32.602Z,7.58
2023-01-29T15:59:09.259Z,7.53
2023-01-29T16:01:38.506Z,7.45
2023-01-29T16:04:07.501Z,7.42
2023-01-29T16:06:39.288Z,7.43
2023-01-29T16:09:09.508Z,7.38
2023-01-29T16:11:40.492Z,7.33
2023-01-29T16:14:09.679Z,7.28
2023-01-29T16:16:38.958Z,7.20
2023-01-29T16:19:15.632Z,7.15
2023-01-29T16:21:46.220Z,7.09
2023-01-29T16:24:22.942Z,7.10
2023-01-29T16:26:57.907Z,7.06
2023-01-29T16:29:33.015Z,7.04
2023-01-29T16:32:03.224Z,6.96
2023-01-29T16:34:35.701Z,6.84
2023-01-29T16:37:08.018Z,6.68
2023-01-29T16:39:40.916Z,6.48
2023-01-29T16:42:26.919Z,6.35
2023-01-29T16:45:01.212Z,6.32
2023-01-29T16:47:32.749Z,6.27
2023-01-29T16:50:03.470Z,6.01
2023-01-29T16:52:33.290Z,6.13
2023-01-29T16:55:17.100Z,6.04
2023-01-29T16:57:52.908Z,5.93
2023-01-29T17:00:25.005Z,5.84
2023-01-29T17:02:56.260Z,5.78
2023-01-29T17:05:29.351Z,5.72
2023-01-29T17:07:59.633Z,5.56
2023-01-29T17:10:30.422Z,5.62
2023-01-29T17:13:04.115Z,5.60
2023-01-29T17:15:36.141Z,5.55
2023-01-29T17:18:05.646Z,5.26
2023-01-29T17:20:34.414Z,5.28
2023-01-29T17:23:03.089Z,5.14
2023-01-29T17:25:31.660Z,4.90
2023-01-29T17:28:04.138Z,4.83
2023-01-29T17:30:35.370Z,4.76
2023-01-29T17:33:12.506Z,4.62
2023-01-29T17:35:42.397Z,4.59
2023-01-29T17:38:24.339Z,4.51
2023-01-29T17:40:57.860Z,4.33
2023-01-29T17:43:27.988Z,4.26
2023-01-29T17:45:56.949Z,4.13
2023-01-29T17:48:26.755Z,3.86
2023-01-29T17:50:57.168Z,3.81
2023-01-29T17:53:30.487Z,3.67
2023-01-29T17:56:05.459Z,3.44
2023-01-29T17:58:35.494Z,3.36
2023-01-29T18:01:05.378Z,3.28
2023-01-29T18:03:36.815Z,3.22
2023-01-29T18:06:08.754Z,3.05
2023-01-29T18:08:39.666Z,3.09
2023-01-29T18:11:08.257Z,3.00
2023-01-29T18:13:38.254Z,2.86
2023-01-29T18:16:07.367Z,2.68
2023-01-29T18:18:35.895Z,2.66
2023-01-29T18:21:04.841Z,2.49
2023-01-29T18:23:33.517Z,2.38
2023-01-29T18:26:02.090Z,2.27
2023-01-29T18:28:31.607Z,2.14
2023-01-29T18:31:03.071Z,2.05
2023-01-29T18:33:31.803Z,2.05
2023-01-29T18:36:00.731Z,1.99
2023-01-29T18:38:29.605Z,1.81
2023-01-29T18:41:04.842Z,1.43
2023-01-29T18:43:33.515Z,1.53
2023-01-29T18:46:03.432Z,1.47
2023-01-29T18:48:32.357Z,1.41
2023-01-29T18:51:01.234Z,1.44
2023-01-29T18:53:29.865Z,1.40
2023-01-29T18:55:59.869Z,1.36
2023-01-29T18:58:36.310Z,1.28
2023-01-29T19:01:10.161Z,1.08
2023-01-29T19:03:39.327Z,0.92
2023-01-29T19:06:14.008Z,0.62
2023-01-29T19:08:49.517Z,0.81
2023-01-29T19:11:18.539Z,0.75
2023-01-29T19:13:48.186Z,0.61
2023-01-29T19:16:18.603Z,0.59
2023-01-29T19:18:47.104Z,0.56
2023-01-29T19:21:19.172Z,0.55
2023-01-29T19:23:49.490Z,0.57
2023-01-29T19:26:18.292Z,0.56
2023-01-29T19:28:46.847Z,0.54
2023-01-29T19:31:15.470Z,0.46
2023-01-29T19:33:45.392Z,0.37
2023-01-29T19:36:13.990Z,0.33
2023-01-29T19:38:43.322Z,0.30
2023-01-29T19:41:11.941Z,0.29
2023-01-29T19:43:42.111Z,0.27
2023-01-29T19:46:11.794Z,0.26
2023-01-29T19:48:40.547Z,0.24
2023-01-29T19:51:28.237Z,0.27
2023-01-29T19:54:02.441Z,0.23
2023-01-29T19:56:31.039Z,0.16
2023-01-29T19:58:59.564Z,0.19
2023-01-29T20:01:34.130Z,0.13
2023-01-29T20:04:02.876Z,0.12
2023-01-29T20:06:32.792Z,0.10
2023-01-29T20:09:03.160Z,0.09
2023-01-29T20:11:32.694Z,0.07
2023-01-29T20:14:02.212Z,0.09
2023-01-29T20:16:31.334Z,0.06
2023-01-29T20:19:13.307Z,0.06
2023-01-29T20:21:49.007Z,0.02
2023-01-29T20:24:18.233Z,0.04
2023-01-29T20:26:47.367Z,-0.01
2023-01-29T20:29:16.017Z,-0.04
2023-01-29T20:31:44.532Z,-0.10
2023-01-29T20:34:13.082Z,-0.14
2023-01-29T20:36:41.656Z,-0.12
2023-01-29T20:39:11.641Z,-0.14
2023-01-29T20:41:41.812Z,-0.17
2023-01-29T20:44:10.378Z,-0.20
2023-01-29T20:46:39.523Z,-0.25
2023-01-29T20:49:09.213Z,-0.24
2023-01-29T20:51:37.975Z,-0.24
2023-01-29T20:54:06.589Z,-0.29
2023-01-29T20:56:42.243Z,-0.31
2023-01-29T20:59:12.155Z,-0.38
2023-01-29T21:01:40.600Z,-0.40
2023-01-29T21:04:09.164Z,-0.40
2023-01-29T21:06:37.824Z,-0.37
2023-01-29T21:09:06.605Z,-0.34
2023-01-29T21:11:36.535Z,-0.33
2023-01-29T21:14:05.223Z,-0.37
2023-01-29T21:16:33.835Z,-0.38
2023-01-29T21:19:02.451Z,-0.44
2023-01-29T21:21:31.062Z,-0.49
2023-01-29T21:23:59.541Z,-0.49
2023-01-29T21:26:28.135Z,-0.51
2023-01-29T21:28:58.142Z,-0.52
2023-01-29T21:31:26.678Z,-0.56
2023-01-29T21:33:55.143Z,-0.58
2023-01-29T21:36:23.639Z,-0.56
2023-01-29T21:38:52.198Z,-0.53
2023-01-29T21:41:40.700Z,-0.60
2023-01-29T21:44:09.898Z,-0.62
2023-01-29T21:46:38.417Z,-0.65
2023-01-29T21:49:07.255Z,-0.66
2023-01-29T21:51:37.242Z,-0.72
2023-01-29T21:54:06.149Z,-0.80
2023-01-29T21:56:35.795Z,-0.77
2023-01-29T21:59:04.550Z,-0.78
2023-01-29T22:01:37.803Z,-0.77
2023-01-29T22:04:08.317Z,-0.73
2023-01-29T22:06:36.807Z,-0.77
2023-01-29T22:09:05.564Z,-0.71
2023-01-29T22:11:34.279Z,-0.78
2023-01-29T22:14:02.775Z,-0.80
2023-01-29T22:16:31.344Z,-0.85
2023-01-29T22:19:01.489Z,-0.81
2023-01-29T22:21:36.017Z,-0.80
2023-01-29T22:24:05.256Z,-0.83
2023-01-29T22:26:33.850Z,-0.81
2023-01-29T22:29:02.467Z,-0.81
2023-01-29T22:31:30.991Z,-0.82
2023-01-29T22:34:00.858Z,-0.76
2023-01-29T22:36:29.391Z,-0.77
2023-01-29T22:38:57.968Z,-0.79
2023-01-29T22:41:26.661Z,-0.79
2023-01-29T22:43:55.176Z,-0.87
2023-01-29T22:46:23.791Z,-0.87
2023-01-29T22:48:52.379Z,-0.84
2023-01-29T22:51:22.547Z,-0.76
2023-01-29T22:53:52.627Z,-0.77
2023-01-29T22:56:22.003Z,-0.82
2023-01-29T22:58:52.306Z,0.07
2023-01-29T23:01:30.270Z,-0.43
2023-01-29T23:04:04.857Z,-0.57
2023-01-29T23:06:34.893Z,-0.74
2023-01-29T23:09:03.379Z,-0.86
2023-01-29T23:11:31.867Z,-0.92
2023-01-29T23:14:00.440Z,-0.90
2023-01-29T23:16:34.314Z,-0.98
2023-01-29T23:19:06.966Z,-0.96
2023-01-29T23:21:40.033Z,-1.05
2023-01-29T23:24:12.261Z,-1.12
2023-01-29T23:27:00.882Z,-1.15
2023-01-29T23:29:31.855Z,-1.18
2023-01-29T23:32:00.935Z,-1.19
2023-01-29T23:34:29.477Z,-1.20
2023-01-29T23:36:59.866Z,-1.30
2023-01-29T23:39:28.339Z,-1.19
2023-01-29T23:41:56.901Z,-1.22
2023-01-29T23:44:25.673Z,-1.23
2023-01-29T23:46:54.315Z,-1.25
2023-01-29T23:49:23.244Z,-1.31
2023-01-29T23:51:52.446Z,-1.28
2023-01-29T23:54:23.104Z,-1.31
2023-01-29T23:56:51.740Z,-1.42
2023-01-29T23:59:20.694Z,-1.47
